Fair Haven, VT

2015 Július 31 07:17 AM (EDT időzóna) (GMT -0400)
Crystal Beach | | Change Station
CLOSE
Current Station
Personal Weather Stations
Location: Bomoseen, VT
Elevation: 446 ft
Közeli meteorológiai állomások

Elev 446 ft 43.66 °N, 73.19 °W | Updated 22 seconds ago

Helyenként felhős
Helyenként felhős
62.8 °F
Hőérzet 62.8 °F
N
0.0
Szél: változó Szél: from dél-délnyugati
Gusts 0.0 mph

Ma
High -- | Low -- °F
--% Csapadék valószínű
Tegnapi
High -- | Low -- °F
Precip. -- hvlyk.
5:40 AM 8:17 PM
telihold, 100% visible
Légnyomás 29.80 hvlyk.
Látótávolság 10.0 mérföld
Felhők Derült
Harmatpont 62 °F
Páratartalom 98%
Rainfall 0.00 hvlyk.
Hóréteg vastagsága Not available.
UV 1 out of 12
Pollen 5.80 out of 12
A levegő minősége Not available.
Flu Activity Not available.
METAR KGFL 311053Z AUTO 00000KT 10SM CLR 17/16 A2980 RMK AO2 SLP090 T01720156

More Conditions Fewer Conditions

Légnyomás 29.80 hvlyk.
Látótávolság 10.0 mérföld
Felhők Derült
Harmatpont 62 °F
Páratartalom 98%
Rainfall 0.00 hvlyk.
Hóréteg vastagsága Not available.
UV 1 out of 12
Pollen 5.80 out of 12
A levegő minősége Not available.
Flu Activity Not available.
METAR KGFL 311053Z AUTO 00000KT 10SM CLR 17/16 A2980 RMK AO2 SLP090 T01720156

More Conditions Fewer Conditions

10-Day Weather Forecast

×

Almanac

Csillagászat

Jul. 31, 2015 Kel Nyugszik
Tényleges idő
Civil alkony
Tengerészeti alkony
Csillagászati alkony
Hold
Látható fény időtartama
A nap hossza
Tomorrow will be .
, % of the Moon is Illuminated

Today's Extremes

State Highs State Lows

Community

WunderPhotos

Upload Photos

1,842,645 Fotók feltöltve.

WunderBlogs® & News

Nearby

A levegő minősége

  A levegő minősége AQ Index Szennyezőanyag
Not available.

Hóréteg vastagsága

Station Depth Elevation

Earthquake Activity

város Distance Mag. Time & Date
Minimum magnitude displayed is 2.5.

Coastal Water Temperatures

Hely Hőmérséklet

Stations

Közeli meteorológiai állomások

Station Location Hőm. Hőérzet Harmatpont Páratartalom Szél: Precip. Elev Frissítve Type